Time,TemperatureF,DewpointF,PressureIn,WindDirection,WindDirectionDegrees,WindSpeedMPH,WindSpeedGustMPH,Humidity,HourlyPrecipIn,Conditions,Clouds,dailyrainin,SolarRadiationWatts/m^2,SoftwareType,DateUTC
2013-03-04 00:00:00,5.7,-4.8,30.14,SW,216,0.0,0.0,61,0.00,CLR,OVC,0.00,0.0,WeatherDisplay:10.37,2013-03-04 06:00:00,
2013-03-04 00:05:00,5.5,-5.0,30.14,SW,216,0.0,0.0,61,0.00,CLR,OVC,0.00,0.0,WeatherDisplay:10.37,2013-03-04 06:05:00,
2013-03-04 00:10:00,5.5,-5.0,30.14,SW,216,0.0,0.0,61,0.00,CLR,OVC,0.00,0.0,WeatherDisplay:10.37,2013-03-04 06:10:00,
2013-03-04 00:15:00,5.4,-5.2,30.14,SW,216,0.0,0.0,61,0.00,CLR,OVC,0.00,0.0,WeatherDisplay:10.37,2013-03-04 06:15:00,
2013-03-04 00:20:00,5.4,-5.2,30.14,SW,216,0.0,0.0,61,0.00,CLR,OVC,0.00,0.0,WeatherDisplay:10.37,2013-03-04 06:20:00,
2013-03-04 00:25:00,5.4,-5.2,30.14,SW,216,0.0,0.0,61,0.00,CLR,OVC,0.00,0.0,WeatherDisplay:10.37,2013-03-04 06:25:00,
2013-03-04 00:30:00,5.4,-5.2,30.14,SW,216,0.0,0.0,61,0.00,CLR,OVC,0.00,0.0,WeatherDisplay:10.37,2013-03-04 06:30:00,
2013-03-04 00:35:00,5.2,-5.4,30.14,SW,216,0.0,0.0,61,0.00,CLR,OVC,0.00,0.0,WeatherDisplay:10.37,2013-03-04 06:35:00,
2013-03-04 00:40:00,5.0,-5.5,30.14,SW,216,0.0,0.0,61,0.00,CLR,OVC,0.00,0.0,WeatherDisplay:10.37,2013-03-04 06:40:00,
2013-03-04 00:45:00,5.0,-5.5,30.14,SW,216,0.0,0.0,61,0.00,CLR,OVC,0.00,0.0,WeatherDisplay:10.37,2013-03-04 06:45:00,
2013-03-04 00:50:00,5.0,-5.5,30.14,SW,216,0.0,0.0,61,0.00,CLR,OVC,0.00,0.0,WeatherDisplay:10.37,2013-03-04 06:50:00,
2013-03-04 00:55:00,4.8,-5.7,30.14,SW,216,0.0,0.0,61,0.00,CLR,OVC,0.00,0.0,WeatherDisplay:10.37,2013-03-04 06:55:00,
2013-03-04 01:00:00,4.6,-5.9,30.14,SW,216,0.0,0.0,61,0.00,CLR,OVC,0.00,0.0,WeatherDisplay:10.37,2013-03-04 07:00:00,
2013-03-04 01:05:00,4.6,-5.9,30.14,SW,216,0.0,0.0,61,0.00,CLR,OVC,0.00,0.0,WeatherDisplay:10.37,2013-03-04 07:05:00,
2013-03-04 01:10:00,4.8,-5.7,30.14,SW,216,0.0,0.0,61,0.00,CLR,OVC,0.00,0.0,WeatherDisplay:10.37,2013-03-04 07:10:00,
2013-03-04 01:15:00,4.8,-5.7,30.14,SW,216,0.0,0.0,61,0.00,CLR,OVC,0.00,0.0,WeatherDisplay:10.37,2013-03-04 07:15:00,
2013-03-04 01:20:00,4.8,-5.7,30.14,SW,216,0.0,0.0,61,0.00,CLR,OVC,0.00,0.0,WeatherDisplay:10.37,2013-03-04 07:20:00,
2013-03-04 01:24:00,4.8,-5.7,30.14,SW,215,0.0,0.0,61,0.00,CLR,OVC,0.00,0.0,WeatherDisplay:10.37,2013-03-04 07:24:00,
2013-03-04 01:29:00,4.8,-5.7,30.14,SW,216,0.0,0.0,61,0.00,CLR,OVC,0.00,0.0,WeatherDisplay:10.37,2013-03-04 07:29:00,
2013-03-04 01:34:00,5.0,-5.5,30.14,SW,216,0.0,0.0,61,0.00,CLR,OVC,0.00,0.0,WeatherDisplay:10.37,2013-03-04 07:34:00,
2013-03-04 01:39:00,5.0,-5.5,30.17,SW,216,0.0,0.0,61,0.00,CLR,OVC,0.00,0.0,WeatherDisplay:10.37,2013-03-04 07:39:00,
2013-03-04 01:44:00,4.8,-5.7,30.17,SW,216,0.0,0.0,61,0.00,CLR,OVC,0.00,0.0,WeatherDisplay:10.37,2013-03-04 07:44:00,
2013-03-04 01:49:00,4.8,-5.7,30.17,SW,216,0.0,0.0,61,0.00,CLR,OVC,0.00,0.0,WeatherDisplay:10.37,2013-03-04 07:49:00,
2013-03-04 01:54:00,4.8,-5.7,30.17,SW,216,0.0,0.0,61,0.00,CLR,OVC,0.00,0.0,WeatherDisplay:10.37,2013-03-04 07:54:00,
2013-03-04 01:59:00,5.0,-5.5,30.17,SW,216,0.0,0.0,61,0.00,CLR,OVC,0.00,0.0,WeatherDisplay:10.37,2013-03-04 07:59:00,
2013-03-04 02:04:00,5.0,-5.5,30.17,SW,216,0.0,0.0,61,0.00,CLR,OVC,0.00,0.0,WeatherDisplay:10.37,2013-03-04 08:04:00,
2013-03-04 02:09:00,5.0,-5.5,30.17,SW,216,0.0,0.0,61,0.00,CLR,OVC,0.00,0.0,WeatherDisplay:10.37,2013-03-04 08:09:00,
2013-03-04 02:14:00,5.0,-5.5,30.17,SW,216,0.0,0.0,61,0.00,CLR,OVC,0.00,0.0,WeatherDisplay:10.37,2013-03-04 08:14:00,
2013-03-04 02:19:00,5.0,-5.5,30.17,SW,216,0.0,0.0,61,0.00,CLR,OVC,0.00,0.0,WeatherDisplay:10.37,2013-03-04 08:19:00,
2013-03-04 02:24:00,5.4,-5.2,30.17,SW,216,0.0,0.0,61,0.00,CLR,OVC,0.00,0.0,WeatherDisplay:10.37,2013-03-04 08:24:00,
2013-03-04 02:29:00,5.4,-5.2,30.17,SW,216,0.0,0.0,61,0.00,CLR,OVC,0.00,0.0,WeatherDisplay:10.37,2013-03-04 08:29:00,
2013-03-04 02:34:00,5.4,-5.2,30.17,SW,216,0.0,0.0,61,0.00,CLR,OVC,0.00,0.0,WeatherDisplay:10.37,2013-03-04 08:34:00,
2013-03-04 02:39:00,5.5,-5.0,30.17,SW,216,0.0,0.0,61,0.00,CLR,OVC,0.00,0.0,WeatherDisplay:10.37,2013-03-04 08:39:00,
2013-03-04 02:44:00,5.4,-5.2,30.17,SW,216,0.0,0.0,61,0.00,CLR,OVC,0.00,0.0,WeatherDisplay:10.37,2013-03-04 08:44:00,
2013-03-04 02:49:00,5.4,-5.2,30.17,SW,216,0.0,0.0,61,0.00,CLR,OVC,0.00,0.0,WeatherDisplay:10.37,2013-03-04 08:49:00,
2013-03-04 02:54:00,5.4,-5.2,30.17,SW,216,0.0,0.0,61,0.00,CLR,OVC,0.00,0.0,WeatherDisplay:10.37,2013-03-04 08:54:00,
2013-03-04 02:59:00,5.4,-5.2,30.17,SW,216,0.0,0.0,61,0.00,CLR,OVC,0.00,0.0,WeatherDisplay:10.37,2013-03-04 08:59:00,
2013-03-04 03:04:00,5.4,-5.2,30.17,SW,216,0.0,0.0,61,0.00,CLR,OVC,0.00,0.0,WeatherDisplay:10.37,2013-03-04 09:04:00,
2013-03-04 03:09:00,5.5,-5.0,30.17,SW,216,0.0,0.0,61,0.00,CLR,OVC,0.00,0.0,WeatherDisplay:10.37,2013-03-04 09:09:00,
2013-03-04 03:14:00,5.5,-5.0,30.17,SW,216,0.0,0.0,61,0.00,CLR,OVC,0.00,0.0,WeatherDisplay:10.37,2013-03-04 09:14:00,
2013-03-04 03:19:00,5.7,-4.8,30.17,SW,216,0.0,0.0,61,0.00,CLR,OVC,0.00,0.0,WeatherDisplay:10.37,2013-03-04 09:19:00,
2013-03-04 03:24:00,5.7,-4.8,30.17,SW,216,0.0,0.0,61,0.00,CLR,OVC,0.00,0.0,WeatherDisplay:10.37,2013-03-04 09:24:00,
2013-03-04 03:29:00,5.5,-5.0,30.17,SW,216,0.0,0.0,61,0.00,CLR,OVC,0.00,0.0,WeatherDisplay:10.37,2013-03-04 09:29:00,
2013-03-04 03:34:00,5.5,-5.0,30.17,SW,216,0.0,0.0,61,0.00,CLR,OVC,0.00,0.0,WeatherDisplay:10.37,2013-03-04 09:34:00,
2013-03-04 03:39:00,5.5,-5.0,30.17,SW,216,0.0,0.0,61,0.00,CLR,OVC,0.00,0.0,WeatherDisplay:10.37,2013-03-04 09:39:00,
2013-03-04 03:44:00,5.5,-5.0,30.17,SW,216,0.0,0.0,61,0.00,CLR,OVC,0.00,0.0,WeatherDisplay:10.37,2013-03-04 09:44:00,
2013-03-04 03:49:00,5.5,-5.0,30.17,SW,216,0.0,0.0,61,0.00,CLR,OVC,0.00,0.0,WeatherDisplay:10.37,2013-03-04 09:49:00,
2013-03-04 03:54:00,5.7,-4.8,30.17,SW,216,0.0,0.0,61,0.00,CLR,OVC,0.00,0.0,WeatherDisplay:10.37,2013-03-04 09:54:00,
2013-03-04 03:59:00,5.5,-5.0,30.17,SW,216,0.0,0.0,61,0.00,CLR,OVC,0.00,0.0,WeatherDisplay:10.37,2013-03-04 09:59:00,
2013-03-04 04:04:00,5.5,-5.0,30.17,SW,216,0.0,0.0,61,0.00,CLR,OVC,0.00,0.0,WeatherDisplay:10.37,2013-03-04 10:04:00,
2013-03-04 04:09:00,5.5,-5.0,30.17,SW,216,0.0,0.0,61,0.00,CLR,OVC,0.00,0.0,WeatherDisplay:10.37,2013-03-04 10:09:00,
2013-03-04 04:14:00,5.5,-5.0,30.17,SW,216,0.0,0.0,61,0.00,CLR,OVC,0.00,0.0,WeatherDisplay:10.37,2013-03-04 10:14:00,
2013-03-04 04:19:00,5.7,-4.8,30.17,SW,216,0.0,0.0,61,0.00,CLR,OVC,0.00,0.0,WeatherDisplay:10.37,2013-03-04 10:19:00,
2013-03-04 04:24:00,5.9,-4.7,30.17,SW,216,0.0,0.0,61,0.00,CLR,OVC,0.00,0.0,WeatherDisplay:10.37,2013-03-04 10:24:00,
2013-03-04 04:29:00,6.1,-4.5,30.17,SW,216,0.0,0.0,61,0.00,CLR,OVC,0.00,0.0,WeatherDisplay:10.37,2013-03-04 10:29:00,
2013-03-04 04:34:00,6.3,-4.3,30.17,SW,216,0.0,0.0,61,0.00,CLR,OVC,0.00,0.0,WeatherDisplay:10.37,2013-03-04 10:34:00,
2013-03-04 04:39:00,6.4,-4.2,30.17,SW,216,0.0,0.0,61,0.00,CLR,OVC,0.00,0.0,WeatherDisplay:10.37,2013-03-04 10:39:00,
2013-03-04 04:44:00,6.4,-4.2,30.17,SW,216,0.0,0.0,61,0.00,CLR,OVC,0.00,0.0,WeatherDisplay:10.37,2013-03-04 10:44:00,
2013-03-04 04:49:00,6.6,-4.0,30.17,SW,216,0.0,0.0,61,0.00,CLR,OVC,0.00,0.0,WeatherDisplay:10.37,2013-03-04 10:49:00,
2013-03-04 04:54:00,6.8,-3.8,30.17,SW,216,0.0,0.0,61,0.00,CLR,OVC,0.00,0.0,WeatherDisplay:10.37,2013-03-04 10:54:00,
2013-03-04 04:59:00,6.8,-3.8,30.17,SW,216,0.0,0.0,61,0.00,CLR,OVC,0.00,0.0,WeatherDisplay:10.37,2013-03-04 10:59:00,
2013-03-04 05:04:00,6.8,-3.8,30.17,SW,216,0.0,0.0,61,0.00,CLR,OVC,0.00,0.0,WeatherDisplay:10.37,2013-03-04 11:04:00,
2013-03-04 05:09:00,7.0,-3.7,30.17,SW,216,0.0,0.0,61,0.00,CLR,OVC,0.00,0.0,WeatherDisplay:10.37,2013-03-04 11:09:00,
2013-03-04 05:14:00,7.0,-3.7,30.17,SW,216,0.0,0.0,61,0.00,CLR,OVC,0.00,0.0,WeatherDisplay:10.37,2013-03-04 11:14:00,
2013-03-04 05:19:00,7.2,-3.5,30.17,SW,216,3.5,3.5,61,0.00,CLR,OVC,0.00,0.0,WeatherDisplay:10.37,2013-03-04 11:19:00,
2013-03-04 05:24:00,7.3,-3.3,30.17,SW,216,2.3,0.0,61,0.00,CLR,OVC,0.00,0.0,WeatherDisplay:10.37,2013-03-04 11:24:00,
2013-03-04 05:29:00,7.9,-2.8,30.17,SW,216,2.3,2.3,61,0.00,CLR,OVC,0.00,0.0,WeatherDisplay:10.37,2013-03-04 11:29:00,
2013-03-04 05:34:00,8.1,-2.6,30.17,SW,216,3.5,3.5,61,0.00,CLR,OVC,0.00,0.0,WeatherDisplay:10.37,2013-03-04 11:34:00,
2013-03-04 05:39:00,8.4,-2.3,30.17,ENE,77,3.5,3.5,61,0.00,CLR,OVC,0.00,0.0,WeatherDisplay:10.37,2013-03-04 11:39:00,
2013-03-04 05:44:00,8.8,-1.9,30.17,East,82,3.5,3.5,61,0.00,CLR,OVC,0.00,0.0,WeatherDisplay:10.37,2013-03-04 11:44:00,
2013-03-04 05:49:00,9.3,-1.4,30.17,East,81,3.5,3.5,61,0.00,CLR,OVC,0.00,0.0,WeatherDisplay:10.37,2013-03-04 11:49:00,
2013-03-04 05:54:00,9.5,-1.3,30.17,ENE,76,2.3,2.3,61,0.00,CLR,OVC,0.00,0.0,WeatherDisplay:10.37,2013-03-04 11:54:00,
2013-03-04 05:59:00,9.7,-1.1,30.17,ENE,76,2.3,0.0,61,0.00,CLR,OVC,0.00,0.0,WeatherDisplay:10.37,2013-03-04 11:59:00,
2013-03-04 06:04:00,9.7,-1.1,30.17,ENE,76,0.0,0.0,61,0.00,CLR,OVC,0.00,0.0,WeatherDisplay:10.37,2013-03-04 12:04:00,
2013-03-04 06:09:00,9.7,-1.1,30.17,ENE,76,0.0,0.0,61,0.00,CLR,OVC,0.00,0.0,WeatherDisplay:10.37,2013-03-04 12:09:00,
2013-03-04 06:14:00,9.7,-1.1,30.17,East,89,2.3,0.0,61,0.00,CLR,OVC,0.00,0.0,WeatherDisplay:10.37,2013-03-04 12:14:00,
2013-03-04 06:19:00,9.7,-1.1,30.17,East,89,2.3,2.3,61,0.00,CLR,OVC,0.00,0.0,WeatherDisplay:10.37,2013-03-04 12:19:00,
2013-03-04 06:24:00,9.7,-1.1,30.17,East,89,0.0,0.0,61,0.00,CLR,OVC,0.00,0.0,WeatherDisplay:10.37,2013-03-04 12:24:00,
2013-03-04 06:29:00,9.7,-1.1,30.17,East,89,0.0,0.0,61,0.00,CLR,OVC,0.00,0.0,WeatherDisplay:10.37,2013-03-04 12:29:00,
2013-03-04 06:34:00,10.0,-0.7,30.17,East,80,2.3,0.0,61,0.00,CLR,OVC,0.00,0.0,WeatherDisplay:10.37,2013-03-04 12:34:00,
2013-03-04 06:39:00,10.2,-0.6,30.17,ENE,64,3.5,3.5,61,0.00,CLR,OVC,0.00,0.0,WeatherDisplay:10.37,2013-03-04 12:39:00,
2013-03-04 06:44:00,10.2,-0.6,30.17,ENE,76,2.3,0.0,61,0.00,CLR,OVC,0.00,1.5,WeatherDisplay:10.37,2013-03-04 12:44:00,
2013-03-04 06:49:00,10.4,-0.4,30.17,ENE,71,4.6,4.6,61,0.00,CLR,OVC,0.00,2.8,WeatherDisplay:10.37,2013-03-04 12:49:00,
2013-03-04 06:54:00,10.8,-0.1,30.14,ENE,78,4.6,4.6,61,0.00,CLR,OVC,0.00,4.1,WeatherDisplay:10.37,2013-03-04 12:54:00,
2013-03-04 06:59:00,10.9,0.1,30.14,ENE,74,4.6,4.6,61,0.00,CLR,OVC,0.00,5.4,WeatherDisplay:10.37,2013-03-04 12:59:00,
2013-03-04 07:04:00,11.1,0.3,30.14,East,79,3.5,3.5,61,0.00,CLR,OVC,0.00,6.7,WeatherDisplay:10.37,2013-03-04 13:04:00,
2013-03-04 07:09:00,11.5,0.6,30.14,ENE,76,3.5,3.5,61,0.00,CLR,OVC,0.00,8.1,WeatherDisplay:10.37,2013-03-04 13:09:00,
2013-03-04 07:14:00,11.7,0.8,30.14,ENE,76,2.3,2.7,61,0.00,FEW,OVC,0.00,9.4,WeatherDisplay:10.37,2013-03-04 13:14:00,
2013-03-04 07:19:00,12.0,1.1,30.14,East,96,3.5,3.5,61,0.00,FEW,OVC,0.00,10.6,WeatherDisplay:10.37,2013-03-04 13:19:00,
2013-03-04 07:24:00,12.2,1.3,30.14,East,82,3.5,3.5,61,0.00,FEW,OVC,0.00,11.9,WeatherDisplay:10.37,2013-03-04 13:24:00,
2013-03-04 07:29:00,12.6,1.6,30.14,East,81,5.8,5.8,61,0.00,FEW,OVC,0.00,13.1,WeatherDisplay:10.37,2013-03-04 13:29:00,
2013-03-04 07:34:00,12.9,2.0,30.14,East,81,3.5,3.5,61,0.00,FEW,OVC,0.00,14.3,WeatherDisplay:10.37,2013-03-04 13:34:00,
2013-03-04 07:39:00,13.3,2.3,30.14,East,88,3.5,3.5,61,0.00,FEW,OVC,0.00,15.3,WeatherDisplay:10.37,2013-03-04 13:39:00,
2013-03-04 07:44:00,13.6,2.7,30.14,ENE,71,4.6,4.6,61,0.00,FEW,OVC,0.00,16.4,WeatherDisplay:10.37,2013-03-04 13:44:00,
2013-03-04 07:49:00,13.8,2.8,30.14,ENE,63,5.8,5.8,61,0.00,FEW,OVC,0.00,17.7,WeatherDisplay:10.37,2013-03-04 13:49:00,
2013-03-04 07:54:00,14.4,9.6,30.17,ENE,78,2.3,2.3,81,0.00,FEW,OVC,0.00,18.6,WeatherDisplay:10.37,2013-03-04 13:54:00,
2013-03-04 07:59:00,14.5,9.5,30.17,East,85,3.5,3.5,80,0.00,FEW,OVC,0.00,19.6,WeatherDisplay:10.37,2013-03-04 13:59:00,
2013-03-04 08:04:00,14.7,9.7,30.17,East,85,3.5,3.5,80,0.00,FEW,OVC,0.00,20.8,WeatherDisplay:10.37,2013-03-04 14:04:00,
2013-03-04 08:09:00,15.1,10.0,30.17,ENE,76,2.3,2.3,80,0.00,FEW,OVC,0.00,21.7,WeatherDisplay:10.37,2013-03-04 14:09:00,
2013-03-04 08:14:00,15.4,10.4,30.17,East,86,3.5,0.0,80,0.00,OVC,,0.00,22.5,WeatherDisplay:10.37,2013-03-04 14:14:00,
2013-03-04 08:19:00,15.8,10.7,30.17,East,88,3.5,3.5,80,0.00,OVC,,0.00,23.3,WeatherDisplay:10.37,2013-03-04 14:19:00,
2013-03-04 08:24:00,16.0,10.6,30.17,East,83,3.5,3.5,79,0.00,OVC,,0.00,24.4,WeatherDisplay:10.37,2013-03-04 14:24:00,
2013-03-04 08:29:00,16.3,11.0,30.17,East,83,2.7,2.7,79,0.00,OVC,,0.00,25.1,WeatherDisplay:10.37,2013-03-04 14:29:00,
2013-03-04 08:34:00,16.7,11.3,30.17,East,83,3.5,3.5,79,0.00,OVC,,0.00,25.8,WeatherDisplay:10.37,2013-03-04 14:34:00,
2013-03-04 08:39:00,17.1,10.8,30.14,ENE,69,3.5,3.5,76,0.00,OVC,,0.00,26.3,WeatherDisplay:10.37,2013-03-04 14:39:00,
2013-03-04 08:44:00,17.4,11.1,30.14,ENE,76,4.6,4.6,76,0.00,OVC,,0.00,26.8,WeatherDisplay:10.37,2013-03-04 14:44:00,
2013-03-04 08:49:00,17.8,11.2,30.14,East,81,3.5,3.5,75,0.00,OVC,,0.00,27.3,WeatherDisplay:10.37,2013-03-04 14:49:00,
2013-03-04 08:54:00,18.3,11.7,30.14,East,83,3.5,3.5,75,0.00,OVC,,0.00,27.4,WeatherDisplay:10.37,2013-03-04 14:54:00,
2013-03-04 08:59:00,18.5,11.9,30.14,East,89,2.3,2.3,75,0.00,OVC,,0.00,28.1,WeatherDisplay:10.37,2013-03-04 14:59:00,
2013-03-04 09:04:00,18.5,11.6,30.14,ENE,70,3.5,3.5,74,0.00,OVC,,0.00,29.2,WeatherDisplay:10.37,2013-03-04 15:04:00,
2013-03-04 09:09:00,18.7,11.5,30.14,East,81,5.8,5.8,73,0.00,OVC,,0.00,29.8,WeatherDisplay:10.37,2013-03-04 15:09:00,
2013-03-04 09:14:00,18.9,11.6,30.14,ESE,115,3.5,3.6,73,0.00,OVC,,0.00,30.4,WeatherDisplay:10.37,2013-03-04 15:14:00,
2013-03-04 09:19:00,19.2,11.7,30.14,East,91,3.5,3.5,72,0.00,OVC,,0.00,30.6,WeatherDisplay:10.37,2013-03-04 15:19:00,
2013-03-04 09:24:00,19.6,11.7,30.14,East,88,4.6,4.6,71,0.00,OVC,,0.00,30.6,WeatherDisplay:10.37,2013-03-04 15:24:00,
2013-03-04 09:29:00,19.8,11.9,30.14,East,86,4.6,4.6,71,0.00,OVC,,0.00,31.1,WeatherDisplay:10.37,2013-03-04 15:29:00,
2013-03-04 09:34:00,19.9,12.0,30.14,East,82,5.8,5.8,71,0.00,OVC,,0.00,31.6,WeatherDisplay:10.37,2013-03-04 15:34:00,
2013-03-04 09:39:00,20.3,12.4,30.14,East,88,3.5,3.5,71,0.00,OVC,,0.00,31.3,WeatherDisplay:10.37,2013-03-04 15:39:00,
2013-03-04 09:44:00,21.0,12.8,30.14,ENE,75,3.6,3.6,70,0.00,OVC,,0.00,30.3,WeatherDisplay:10.37,2013-03-04 15:44:00,
2013-03-04 09:49:00,21.4,12.8,30.14,ENE,59,5.8,5.8,69,0.00,OVC,,0.00,30.1,WeatherDisplay:10.37,2013-03-04 15:49:00,
2013-03-04 09:54:00,21.7,13.1,30.14,East,88,3.5,3.5,69,0.00,OVC,,0.00,29.9,WeatherDisplay:10.37,2013-03-04 15:54:00,
2013-03-04 09:59:00,22.3,13.6,30.14,East,99,5.8,5.8,69,0.00,OVC,,0.00,29.4,WeatherDisplay:10.37,2013-03-04 15:59:00,
2013-03-04 10:04:00,22.8,13.8,30.14,East,93,3.6,3.6,68,0.00,OVC,,0.00,28.4,WeatherDisplay:10.37,2013-03-04 16:04:00,
2013-03-04 10:09:00,23.2,14.2,30.14,ESE,112,3.5,3.5,68,0.00,OVC,,0.00,27.3,WeatherDisplay:10.37,2013-03-04 16:09:00,
2013-03-04 10:14:00,23.2,13.8,30.14,East,90,3.5,3.5,67,0.00,OVC,,0.00,27.9,WeatherDisplay:10.37,2013-03-04 16:14:00,
2013-03-04 10:19:00,23.5,14.2,30.14,East,88,5.8,5.8,67,0.00,OVC,,0.00,27.8,WeatherDisplay:10.37,2013-03-04 16:19:00,
2013-03-04 10:24:00,23.7,14.4,30.11,East,83,3.5,3.5,67,0.00,OVC,,0.00,27.2,WeatherDisplay:10.37,2013-03-04 16:24:00,
2013-03-04 10:29:00,24.4,15.0,30.11,East,85,3.5,3.5,67,0.00,OVC,,0.00,25.8,WeatherDisplay:10.37,2013-03-04 16:29:00,
2013-03-04 10:34:00,25.0,15.2,30.11,ENE,61,3.5,3.5,66,0.00,OVC,,0.00,24.4,WeatherDisplay:10.37,2013-03-04 16:34:00,
2013-03-04 10:39:00,25.3,15.2,30.11,East,89,5.8,5.8,65,0.00,OVC,,0.00,23.6,WeatherDisplay:10.37,2013-03-04 16:39:00,
2013-03-04 10:44:00,25.5,15.4,30.11,East,81,5.8,5.8,65,0.00,OVC,,0.00,23.3,WeatherDisplay:10.37,2013-03-04 16:44:00,
2013-03-04 10:49:00,25.9,15.7,30.11,East,87,2.3,0.0,65,0.00,OVC,,0.00,21.7,WeatherDisplay:10.37,2013-03-04 16:49:00,
2013-03-04 10:54:00,26.1,15.5,30.11,East,87,5.8,5.8,64,0.00,OVC,,0.00,21.3,WeatherDisplay:10.37,2013-03-04 16:54:00,
2013-03-04 10:59:00,26.1,15.5,30.11,ENE,64,3.5,3.5,64,0.00,OVC,,0.00,21.6,WeatherDisplay:10.37,2013-03-04 16:59:00,
2013-03-04 11:04:00,26.2,15.7,30.11,ENE,69,5.8,5.8,64,0.00,OVC,,0.00,21.2,WeatherDisplay:10.37,2013-03-04 17:04:00,
2013-03-04 11:09:00,26.4,15.5,30.11,East,95,4.6,4.6,63,0.00,OVC,,0.00,20.7,WeatherDisplay:10.37,2013-03-04 17:09:00,
2013-03-04 11:14:00,26.6,16.1,30.11,East,99,4.6,4.6,64,0.00,OVC,,0.00,20.3,WeatherDisplay:10.37,2013-03-04 17:14:00,
2013-03-04 11:19:00,27.0,16.0,30.11,East,97,5.8,5.8,63,0.00,OVC,,0.00,19.1,WeatherDisplay:10.37,2013-03-04 17:19:00,
2013-03-04 11:24:00,27.1,16.2,30.11,ENE,73,5.8,5.8,63,0.00,OVC,,0.00,18.5,WeatherDisplay:10.37,2013-03-04 17:24:00,
2013-03-04 11:29:00,27.1,15.8,30.11,East,83,5.8,5.8,62,0.00,OVC,,0.00,18.7,WeatherDisplay:10.37,2013-03-04 17:29:00,
2013-03-04 11:34:00,27.1,16.2,30.11,East,94,3.5,3.5,63,0.00,OVC,,0.00,18.8,WeatherDisplay:10.37,2013-03-04 17:34:00,
2013-03-04 11:39:00,27.7,16.7,30.11,East,91,5.8,5.8,63,0.00,OVC,,0.00,16.8,WeatherDisplay:10.37,2013-03-04 17:39:00,
2013-03-04 11:44:00,28.0,17.1,30.11,East,83,5.8,5.8,63,0.00,OVC,,0.00,15.5,WeatherDisplay:10.37,2013-03-04 17:44:00,
2013-03-04 11:49:00,28.6,17.2,30.11,ENE,67,3.5,3.5,62,0.00,OVC,,0.00,13.4,WeatherDisplay:10.37,2013-03-04 17:49:00,
2013-03-04 11:54:00,29.3,17.9,30.11,East,83,5.8,5.8,62,0.00,OVC,,0.00,11.3,WeatherDisplay:10.37,2013-03-04 17:54:00,
2013-03-04 11:59:00,29.5,18.1,30.11,East,82,5.8,5.8,62,0.00,OVC,,0.00,10.0,WeatherDisplay:10.37,2013-03-04 17:59:00,
2013-03-04 12:04:00,29.7,17.8,30.11,East,82,5.8,5.8,61,0.00,OVC,,0.00,9.3,WeatherDisplay:10.37,2013-03-04 18:04:00,
2013-03-04 12:09:00,30.0,18.6,30.11,ENE,77,10.4,30.6,62,0.00,OVC,,0.00,7.9,WeatherDisplay:10.37,2013-03-04 18:09:00,
2013-03-04 12:14:00,30.2,18.4,30.11,East,89,5.8,5.8,61,0.00,OVC,,0.00,7.1,WeatherDisplay:10.37,2013-03-04 18:14:00,
2013-03-04 12:19:00,30.4,18.5,30.11,East,86,3.5,4.0,61,0.00,OVC,,0.00,6.4,WeatherDisplay:10.37,2013-03-04 18:19:00,
2013-03-04 12:24:00,30.7,18.5,30.08,East,97,10.4,10.4,60,0.00,OVC,,0.00,5.0,WeatherDisplay:10.37,2013-03-04 18:24:00,
2013-03-04 12:29:00,30.7,18.5,30.08,East,92,8.1,8.1,60,0.00,OVC,,0.00,5.0,WeatherDisplay:10.37,2013-03-04 18:29:00,
2013-03-04 12:30:00,30.7,18.5,30.08,ENE,77,8.1,8.1,60,0.00,OVC,,0.00,5.0,WeatherDisplay:10.37,2013-03-04 18:30:00,
2013-03-04 12:35:00,30.6,18.3,30.08,NNE,28,5.8,5.8,60,0.00,OVC,,0.00,5.7,WeatherDisplay:10.37,2013-03-04 18:35:00,
2013-03-04 12:40:00,30.4,18.1,30.08,ENE,62,5.8,5.8,60,0.00,OVC,,0.00,6.4,WeatherDisplay:10.37,2013-03-04 18:40:00,
2013-03-04 12:45:00,31.1,19.2,30.08,ENE,75,5.8,5.8,61,0.00,OVC,,0.00,4.2,WeatherDisplay:10.37,2013-03-04 18:45:00,
2013-03-04 12:50:00,31.5,19.2,30.08,East,86,5.8,5.8,60,0.00,OVC,,0.00,2.1,WeatherDisplay:10.37,2013-03-04 18:50:00,
2013-03-04 12:55:00,31.8,19.1,30.08,ESE,117,6.9,6.9,59,0.00,OVC,,0.00,0.7,WeatherDisplay:10.37,2013-03-04 18:55:00,
2013-03-04 13:00:00,32.0,19.3,30.08,ESE,104,5.8,5.8,59,0.00,OVC,,0.00,0.0,WeatherDisplay:10.37,2013-03-04 19:00:00,
2013-03-04 13:05:00,32.0,19.3,30.08,SE,127,5.8,0.0,59,0.00,OVC,,0.00,0.0,WeatherDisplay:10.37,2013-03-04 19:05:00,
2013-03-04 13:10:00,32.5,19.8,30.08,SE,136,5.8,5.8,59,0.00,OVC,,0.00,0.0,WeatherDisplay:10.37,2013-03-04 19:10:00,
2013-03-04 13:15:00,32.7,19.6,30.08,East,87,5.8,5.8,58,0.00,OVC,,0.00,0.0,WeatherDisplay:10.37,2013-03-04 19:15:00,
2013-03-04 13:20:00,32.5,19.4,30.08,East,86,3.5,3.5,58,0.00,OVC,,0.00,0.0,WeatherDisplay:10.37,2013-03-04 19:20:00,
2013-03-04 13:25:00,32.7,19.1,30.08,East,99,5.8,5.8,57,0.00,OVC,,0.00,0.0,WeatherDisplay:10.37,2013-03-04 19:25:00,
2013-03-04 13:30:00,32.7,19.6,30.08,ENE,78,4.6,4.6,58,0.00,OVC,,0.00,0.0,WeatherDisplay:10.37,2013-03-04 19:30:00,
2013-03-04 13:35:00,32.5,19.4,30.08,East,83,4.6,4.6,58,0.00,OVC,,0.00,0.0,WeatherDisplay:10.37,2013-03-04 19:35:00,
2013-03-04 13:40:00,32.4,19.2,30.08,East,89,4.6,4.6,58,0.00,OVC,,0.00,0.0,WeatherDisplay:10.37,2013-03-04 19:40:00,
2013-03-04 13:45:00,32.5,19.0,30.08,ESE,110,5.8,5.8,57,0.00,OVC,,0.00,0.0,WeatherDisplay:10.37,2013-03-04 19:45:00,
2013-03-04 13:50:00,32.5,19.0,30.08,East,84,3.6,4.5,57,0.00,OVC,,0.00,0.0,WeatherDisplay:10.37,2013-03-04 19:50:00,
2013-03-04 13:55:00,32.5,19.0,30.08,East,89,5.8,5.8,57,0.00,OVC,,0.00,0.0,WeatherDisplay:10.37,2013-03-04 19:55:00,
2013-03-04 14:00:00,32.4,18.8,30.08,NNE,27,5.8,5.8,57,0.00,OVC,,0.00,0.0,WeatherDisplay:10.37,2013-03-04 20:00:00,
2013-03-04 14:05:00,33.1,19.5,30.08,ESE,114,3.5,3.6,57,0.00,OVC,,0.00,0.0,WeatherDisplay:10.37,2013-03-04 20:05:00,
2013-03-04 14:10:00,33.6,20.0,30.08,ESE,111,4.6,4.6,57,0.00,OVC,,0.00,0.0,WeatherDisplay:10.37,2013-03-04 20:10:00,
2013-03-04 14:15:00,33.8,20.2,30.08,East,80,3.5,3.5,57,0.00,OVC,,0.00,0.0,WeatherDisplay:10.37,2013-03-04 20:15:00,
2013-03-04 14:20:00,33.4,19.8,30.08,East,97,5.8,5.8,57,0.00,OVC,,0.00,0.0,WeatherDisplay:10.37,2013-03-04 20:20:00,
2013-03-04 14:25:00,32.7,19.1,30.08,East,99,5.8,0.0,57,0.00,OVC,,0.00,0.0,WeatherDisplay:10.37,2013-03-04 20:25:00,
2013-03-04 14:30:00,32.7,19.1,30.08,East,89,3.5,3.5,57,0.00,OVC,,0.00,0.0,WeatherDisplay:10.37,2013-03-04 20:30:00,
2013-03-04 14:35:00,32.7,19.6,30.08,East,92,3.5,3.6,58,0.00,OVC,,0.00,0.0,WeatherDisplay:10.37,2013-03-04 20:35:00,
2013-03-04 14:40:00,32.5,19.0,30.05,ENE,71,3.5,3.5,57,0.00,OVC,,0.00,0.0,WeatherDisplay:10.37,2013-03-04 20:40:00,
2013-03-04 14:45:00,32.4,18.8,30.05,East,84,8.1,8.1,57,0.00,OVC,,0.00,0.0,WeatherDisplay:10.37,2013-03-04 20:45:00,
2013-03-04 14:50:00,31.8,18.7,30.05,East,98,5.8,5.8,58,0.00,OVC,,0.00,0.0,WeatherDisplay:10.37,2013-03-04 20:50:00,
2013-03-04 14:55:00,31.5,18.0,30.05,ESE,118,5.8,5.8,57,0.00,OVC,,0.00,1.0,WeatherDisplay:10.37,2013-03-04 20:55:00,
2013-03-04 15:00:00,31.3,17.8,30.05,South,169,3.5,3.5,57,0.00,OVC,,0.00,1.9,WeatherDisplay:10.37,2013-03-04 21:00:00,
2013-03-04 15:05:00,31.5,18.0,30.05,East,84,2.3,0.0,57,0.00,OVC,,0.00,1.4,WeatherDisplay:10.37,2013-03-04 21:05:00,
2013-03-04 15:10:00,31.6,18.1,30.05,ENE,59,4.6,4.6,57,0.00,OVC,,0.00,0.9,WeatherDisplay:10.37,2013-03-04 21:10:00,
2013-03-04 15:15:00,31.5,18.0,30.05,East,94,5.8,5.8,57,0.00,OVC,,0.00,1.3,WeatherDisplay:10.37,2013-03-04 21:15:00,
2013-03-04 15:20:00,31.3,17.8,30.05,East,98,5.8,5.8,57,0.00,OVC,,0.00,1.7,WeatherDisplay:10.37,2013-03-04 21:20:00,
2013-03-04 15:25:00,31.3,17.8,30.05,East,92,3.5,3.5,57,0.00,OVC,,0.00,1.6,WeatherDisplay:10.37,2013-03-04 21:25:00,
2013-03-04 15:30:00,31.1,17.6,30.05,East,92,2.3,2.3,57,0.00,OVC,,0.00,1.9,WeatherDisplay:10.37,2013-03-04 21:30:00,
2013-03-04 15:35:00,31.1,17.6,30.05,East,91,5.8,5.8,57,0.00,OVC,,0.00,1.9,WeatherDisplay:10.37,2013-03-04 21:35:00,
2013-03-04 15:40:00,31.1,17.2,30.05,East,90,4.6,4.6,56,0.00,OVC,,0.00,1.8,WeatherDisplay:10.37,2013-03-04 21:40:00,
2013-03-04 15:45:00,30.9,17.0,30.05,East,99,5.8,5.8,56,0.00,OVC,,0.00,2.1,WeatherDisplay:10.37,2013-03-04 21:45:00,
2013-03-04 15:50:00,30.6,16.7,30.05,ESE,115,5.8,5.8,56,0.00,OVC,,0.00,2.6,WeatherDisplay:10.37,2013-03-04 21:50:00,
2013-03-04 15:55:00,30.2,16.8,30.05,East,89,3.5,3.5,57,0.00,OVC,,0.00,3.1,WeatherDisplay:10.37,2013-03-04 21:55:00,
2013-03-04 16:00:00,30.0,16.6,30.05,ESE,123,5.8,5.8,57,0.00,OVC,,0.00,3.3,WeatherDisplay:10.37,2013-03-04 22:00:00,
2013-03-04 16:05:00,29.7,16.3,30.05,East,87,5.8,5.8,57,0.00,OVC,,0.00,3.7,WeatherDisplay:10.37,2013-03-04 22:05:00,
2013-03-04 16:10:00,29.5,16.1,30.05,East,99,2.3,0.0,57,0.00,OVC,,0.00,3.7,WeatherDisplay:10.37,2013-03-04 22:10:00,
2013-03-04 16:15:00,29.1,16.2,30.05,East,98,3.5,3.5,58,0.00,OVC,,0.00,4.0,WeatherDisplay:10.37,2013-03-04 22:15:00,
2013-03-04 16:20:00,29.1,16.2,30.05,East,82,3.5,3.5,58,0.00,OVC,,0.00,3.8,WeatherDisplay:10.37,2013-03-04 22:20:00,
2013-03-04 16:25:00,28.9,16.0,30.08,NW,311,3.5,3.5,58,0.00,OVC,,0.00,3.8,WeatherDisplay:10.37,2013-03-04 22:25:00,
2013-03-04 16:30:00,28.8,16.2,30.08,East,79,3.5,3.5,59,0.00,OVC,,0.00,3.8,WeatherDisplay:10.37,2013-03-04 22:30:00,
2013-03-04 16:35:00,28.6,16.1,30.08,ENE,74,3.5,3.5,59,0.00,OVC,,0.00,3.7,WeatherDisplay:10.37,2013-03-04 22:35:00,
2013-03-04 16:40:00,28.6,16.4,30.05,East,87,3.5,3.5,60,0.00,OVC,,0.00,3.5,WeatherDisplay:10.37,2013-03-04 22:40:00,
2013-03-04 16:45:00,28.4,16.3,30.05,ESE,115,4.6,4.6,60,0.00,OVC,,0.00,3.4,WeatherDisplay:10.37,2013-03-04 22:45:00,
2013-03-04 16:50:00,28.4,16.7,30.05,East,101,3.6,3.6,61,0.00,OVC,,0.00,3.1,WeatherDisplay:10.37,2013-03-04 22:50:00,
2013-03-04 16:56:00,28.2,16.9,30.08,East,99,5.8,5.8,62,0.00,OVC,,0.00,2.9,WeatherDisplay:10.37,2013-03-04 22:56:00,
2013-03-04 17:01:00,28.0,16.7,30.08,ESE,114,5.8,5.8,62,0.00,OVC,,0.00,2.7,WeatherDisplay:10.37,2013-03-04 23:01:00,
2013-03-04 17:06:00,27.9,16.5,30.08,ESE,112,3.5,3.5,62,0.00,OVC,,0.00,2.5,WeatherDisplay:10.37,2013-03-04 23:06:00,
2013-03-04 17:11:00,27.7,16.3,30.08,ENE,72,8.1,8.1,62,0.00,OVC,,0.00,2.3,WeatherDisplay:10.37,2013-03-04 23:11:00,
2013-03-04 17:16:00,27.3,16.0,30.08,East,79,3.5,3.6,62,0.00,OVC,,0.00,2.2,WeatherDisplay:10.37,2013-03-04 23:16:00,
2013-03-04 17:21:00,27.0,15.7,30.08,East,84,3.5,3.5,62,0.00,OVC,,0.00,2.0,WeatherDisplay:10.37,2013-03-04 23:21:00,
2013-03-04 17:26:00,27.0,15.7,30.08,SSE,155,5.8,5.8,62,0.00,OVC,,0.00,1.7,WeatherDisplay:10.37,2013-03-04 23:26:00,
2013-03-04 17:31:00,26.8,15.5,30.08,East,83,5.8,5.8,62,0.00,OVC,,0.00,1.5,WeatherDisplay:10.37,2013-03-04 23:31:00,
2013-03-04 17:36:00,26.6,15.7,30.08,ESE,103,3.5,3.5,63,0.00,OVC,,0.00,1.2,WeatherDisplay:10.37,2013-03-04 23:36:00,
2013-03-04 17:41:00,26.4,15.5,30.08,East,98,3.5,3.5,63,0.00,OVC,,0.00,0.8,WeatherDisplay:10.37,2013-03-04 23:41:00,
2013-03-04 17:46:00,26.4,15.9,30.08,East,81,3.5,3.5,64,0.00,OVC,,0.00,0.5,WeatherDisplay:10.37,2013-03-04 23:46:00,
2013-03-04 17:51:00,26.2,15.7,30.08,ENE,75,5.8,5.8,64,0.00,OVC,,0.00,0.2,WeatherDisplay:10.37,2013-03-04 23:51:00,
2013-03-04 17:56:00,26.1,15.9,30.08,East,91,3.5,3.5,65,0.00,OVC,,0.00,0.1,WeatherDisplay:10.37,2013-03-04 23:56:00,
2013-03-04 18:01:00,26.1,15.9,30.08,East,84,3.5,3.5,65,0.00,OVC,,0.00,0.0,WeatherDisplay:10.37,2013-03-05 00:01:00,
2013-03-04 18:06:00,26.1,15.9,30.08,ESE,103,5.8,5.8,65,0.00,OVC,,0.00,0.0,WeatherDisplay:10.37,2013-03-05 00:06:00,
2013-03-04 18:11:00,25.9,16.1,30.08,East,90,3.5,3.5,66,0.00,OVC,,0.00,0.0,WeatherDisplay:10.37,2013-03-05 00:11:00,
2013-03-04 18:16:00,25.9,16.1,30.08,East,82,4.6,4.6,66,0.00,OVC,,0.00,0.0,WeatherDisplay:10.37,2013-03-05 00:16:00,
2013-03-04 18:21:00,25.7,15.9,30.08,East,79,3.5,3.5,66,0.00,OVC,,0.00,0.0,WeatherDisplay:10.37,2013-03-05 00:21:00,
2013-03-04 18:26:00,25.7,16.3,30.08,East,85,3.5,3.5,67,0.00,OVC,,0.00,0.0,WeatherDisplay:10.37,2013-03-05 00:26:00,
2013-03-04 18:31:00,25.5,16.1,30.08,ESE,103,3.5,3.6,67,0.00,OVC,,0.00,0.0,WeatherDisplay:10.37,2013-03-05 00:31:00,
2013-03-04 18:36:00,25.5,16.1,30.08,ENE,76,3.5,3.5,67,0.00,OVC,,0.00,0.0,WeatherDisplay:10.37,2013-03-05 00:36:00,
2013-03-04 18:41:00,25.5,16.1,30.11,ENE,70,3.5,3.5,67,0.00,OVC,,0.00,0.0,WeatherDisplay:10.37,2013-03-05 00:41:00,
2013-03-04 18:46:00,25.3,15.9,30.11,ENE,64,3.5,3.5,67,0.00,OVC,,0.00,0.0,WeatherDisplay:10.37,2013-03-05 00:46:00,
2013-03-04 18:51:00,25.3,15.9,30.11,ENE,64,3.1,0.0,67,0.00,OVC,,0.00,0.0,WeatherDisplay:10.37,2013-03-05 00:51:00,
2013-03-04 18:56:00,25.3,15.9,30.11,ENE,69,3.5,3.5,67,0.00,OVC,,0.00,0.0,WeatherDisplay:10.37,2013-03-05 00:56:00,
2013-03-04 19:01:00,25.3,15.9,30.11,East,87,3.5,0.0,67,0.00,OVC,,0.00,0.0,WeatherDisplay:10.37,2013-03-05 01:01:00,
2013-03-04 19:06:00,25.3,15.9,30.11,East,100,3.5,3.5,67,0.00,OVC,,0.00,0.0,WeatherDisplay:10.37,2013-03-05 01:06:00,
2013-03-04 19:11:00,25.3,15.9,30.11,ESE,102,4.6,4.6,67,0.00,OVC,,0.00,0.0,WeatherDisplay:10.37,2013-03-05 01:11:00,
2013-03-04 19:16:00,25.2,15.7,30.11,East,93,5.8,5.8,67,0.00,OVC,,0.00,0.0,WeatherDisplay:10.37,2013-03-05 01:16:00,
2013-03-04 19:21:00,25.2,15.7,30.11,East,89,2.3,2.3,67,0.00,OVC,,0.00,0.0,WeatherDisplay:10.37,2013-03-05 01:21:00,
2013-03-04 19:26:00,25.0,15.6,30.11,ENE,78,5.8,5.8,67,0.00,OVC,,0.00,0.0,WeatherDisplay:10.37,2013-03-05 01:26:00,
2013-03-04 19:31:00,25.0,15.6,30.11,East,81,3.5,3.5,67,0.00,OVC,,0.00,0.0,WeatherDisplay:10.37,2013-03-05 01:31:00,
2013-03-04 19:36:00,25.0,15.9,30.11,ENE,75,2.3,3.6,68,0.00,OVC,,0.00,0.0,WeatherDisplay:10.37,2013-03-05 01:36:00,
2013-03-04 19:41:00,24.8,15.7,30.11,East,85,5.8,5.8,68,0.00,OVC,,0.00,0.0,WeatherDisplay:10.37,2013-03-05 01:41:00,
2013-03-04 19:46:00,24.8,16.1,30.11,East,84,5.8,5.8,69,0.00,OVC,,0.00,0.0,WeatherDisplay:10.37,2013-03-05 01:46:00,
2013-03-04 19:51:00,24.8,16.1,30.11,ENE,63,3.5,3.5,69,0.00,OVC,,0.00,0.0,WeatherDisplay:10.37,2013-03-05 01:51:00,
2013-03-04 19:56:00,24.8,16.1,30.11,East,85,3.5,3.5,69,0.00,OVC,,0.00,0.0,WeatherDisplay:10.37,2013-03-05 01:56:00,
2013-03-04 20:01:00,24.8,16.4,30.11,East,86,4.6,4.6,70,0.00,OVC,,0.00,0.0,WeatherDisplay:10.37,2013-03-05 02:01:00,
2013-03-04 20:06:00,24.8,16.4,30.11,ESE,106,5.8,5.8,70,0.00,OVC,,0.00,0.0,WeatherDisplay:10.37,2013-03-05 02:06:00,
2013-03-04 20:11:00,24.8,16.7,30.11,East,91,5.8,5.8,71,0.00,OVC,,0.00,0.0,WeatherDisplay:10.37,2013-03-05 02:11:00,
2013-03-04 20:16:00,24.8,16.7,30.11,East,83,8.1,8.1,71,0.00,OVC,,0.00,0.0,WeatherDisplay:10.37,2013-03-05 02:16:00,
2013-03-04 20:21:00,25.0,16.9,30.11,ENE,73,5.8,5.8,71,0.00,OVC,,0.00,0.0,WeatherDisplay:10.37,2013-03-05 02:21:00,
2013-03-04 20:26:00,25.0,17.2,30.11,East,93,3.5,3.5,72,0.00,OVC,,0.00,0.0,WeatherDisplay:10.37,2013-03-05 02:26:00,
2013-03-04 20:31:00,24.8,17.1,30.11,ENE,67,5.8,5.8,72,0.00,OVC,,0.00,0.0,WeatherDisplay:10.37,2013-03-05 02:31:00,
2013-03-04 20:36:00,24.8,17.4,30.11,ENE,66,3.5,3.6,73,0.00,OVC,,0.00,0.0,WeatherDisplay:10.37,2013-03-05 02:36:00,
2013-03-04 20:41:00,24.8,17.4,30.11,ENE,64,5.8,5.8,73,0.00,OVC,,0.00,0.0,WeatherDisplay:10.37,2013-03-05 02:41:00,
2013-03-04 20:46:00,24.8,17.4,30.11,ENE,74,4.6,4.6,73,0.00,OVC,,0.00,0.0,WeatherDisplay:10.37,2013-03-05 02:46:00,
2013-03-04 20:51:00,24.8,17.7,30.11,East,84,5.8,5.8,74,0.00,OVC,,0.00,0.0,WeatherDisplay:10.37,2013-03-05 02:51:00,
2013-03-04 20:56:00,24.8,17.7,30.11,ESE,112,5.8,5.8,74,0.00,OVC,,0.00,0.0,WeatherDisplay:10.37,2013-03-05 02:56:00,
2013-03-04 21:01:00,24.8,17.7,30.11,East,95,5.8,5.8,74,0.00,OVC,,0.00,0.0,WeatherDisplay:10.37,2013-03-05 03:01:00,
2013-03-04 21:06:00,24.8,17.4,30.11,ENE,70,5.8,5.8,73,0.00,OVC,,0.00,0.0,WeatherDisplay:10.37,2013-03-05 03:06:00,
2013-03-04 21:11:00,24.6,17.5,30.11,East,96,4.6,4.6,74,0.00,OVC,,0.00,0.0,WeatherDisplay:10.37,2013-03-05 03:11:00,
2013-03-04 21:16:00,24.6,17.5,30.11,ENE,71,8.1,8.1,74,0.00,OVC,,0.00,0.0,WeatherDisplay:10.37,2013-03-05 03:16:00,
2013-03-04 21:21:00,24.6,17.2,30.11,SE,136,5.8,5.8,73,0.00,OVC,,0.00,0.0,WeatherDisplay:10.37,2013-03-05 03:21:00,
2013-03-04 21:25:00,24.6,17.2,30.11,East,98,6.9,6.9,73,0.00,OVC,,0.00,0.0,WeatherDisplay:10.37,2013-03-05 03:25:00,
2013-03-04 21:30:00,24.6,17.5,30.11,East,101,8.1,8.1,74,0.00,OVC,,0.00,0.0,WeatherDisplay:10.37,2013-03-05 03:30:00,
2013-03-04 21:36:00,24.6,17.5,30.11,East,90,4.6,4.6,74,0.00,OVC,,0.00,0.0,WeatherDisplay:10.37,2013-03-05 03:36:00,
2013-03-04 21:41:00,24.4,17.3,30.11,East,98,4.6,4.6,74,0.00,OVC,,0.00,0.0,WeatherDisplay:10.37,2013-03-05 03:41:00,
2013-03-04 21:46:00,24.4,17.3,30.11,ESE,112,5.8,5.8,74,0.00,OVC,,0.00,0.0,WeatherDisplay:10.37,2013-03-05 03:46:00,
2013-03-04 21:50:00,24.4,17.3,30.11,ESE,113,3.5,3.5,74,0.00,OVC,,0.00,0.0,WeatherDisplay:10.37,2013-03-05 03:50:00,
2013-03-04 21:55:00,24.4,17.3,30.11,ENE,63,5.8,5.8,74,0.00,OVC,,0.00,0.0,WeatherDisplay:10.37,2013-03-05 03:55:00,
2013-03-04 22:00:00,24.4,17.3,30.11,ESE,102,3.5,3.5,74,0.00,OVC,,0.00,0.0,WeatherDisplay:10.37,2013-03-05 04:00:00,
2013-03-04 22:05:00,24.4,17.3,30.11,ESE,106,5.8,5.8,74,0.00,OVC,,0.00,0.0,WeatherDisplay:10.37,2013-03-05 04:05:00,
2013-03-04 22:11:00,24.4,17.3,30.11,East,91,8.1,8.1,74,0.00,OVC,,0.00,0.0,WeatherDisplay:10.37,2013-03-05 04:11:00,
2013-03-04 22:15:00,24.3,17.2,30.11,East,80,3.5,3.5,74,0.00,OVC,,0.00,0.0,WeatherDisplay:10.37,2013-03-05 04:15:00,
2013-03-04 22:20:00,24.3,17.2,30.11,ESE,117,5.8,5.8,74,0.00,OVC,,0.00,0.0,WeatherDisplay:10.37,2013-03-05 04:20:00,
2013-03-04 22:25:00,24.3,17.2,30.11,East,97,3.5,3.6,74,0.00,OVC,,0.00,0.0,WeatherDisplay:10.37,2013-03-05 04:25:00,
2013-03-04 22:30:00,24.3,17.5,30.11,ESE,112,5.8,5.8,75,0.00,OVC,,0.00,0.0,WeatherDisplay:10.37,2013-03-05 04:30:00,
2013-03-04 22:36:00,24.3,17.5,30.11,ESE,111,5.8,5.8,75,0.00,OVC,,0.00,0.0,WeatherDisplay:10.37,2013-03-05 04:36:00,
2013-03-04 22:41:00,24.3,17.5,30.11,East,91,3.5,3.6,75,0.00,OVC,,0.00,0.0,WeatherDisplay:10.37,2013-03-05 04:41:00,
2013-03-04 22:46:00,24.3,17.5,30.11,ESE,108,3.5,3.5,75,0.00,OVC,,0.00,0.0,WeatherDisplay:10.37,2013-03-05 04:46:00,
2013-03-04 22:51:00,24.1,17.3,30.11,ESE,104,3.5,0.0,75,0.00,OVC,,0.00,0.0,WeatherDisplay:10.37,2013-03-05 04:51:00,
2013-03-04 22:55:00,24.1,17.6,30.11,East,89,5.8,5.8,76,0.00,OVC,,0.00,0.0,WeatherDisplay:10.37,2013-03-05 04:55:00,
2013-03-04 23:00:00,24.1,17.6,30.11,East,86,3.5,3.6,76,0.00,OVC,,0.00,0.0,WeatherDisplay:10.37,2013-03-05 05:00:00,
2013-03-04 23:05:00,24.1,17.6,30.11,ENE,75,3.5,3.5,76,0.00,OVC,,0.00,0.0,WeatherDisplay:10.37,2013-03-05 05:05:00,
2013-03-04 23:10:00,24.1,17.6,30.11,East,93,3.5,3.5,76,0.00,OVC,,0.00,0.0,WeatherDisplay:10.37,2013-03-05 05:10:00,
2013-03-04 23:15:00,24.1,17.6,30.11,ESE,112,5.8,5.8,76,0.00,OVC,,0.00,0.0,WeatherDisplay:10.37,2013-03-05 05:15:00,
2013-03-04 23:20:00,24.1,17.6,30.11,East,79,5.8,5.8,76,0.00,OVC,,0.00,0.0,WeatherDisplay:10.37,2013-03-05 05:20:00,
2013-03-04 23:25:00,24.1,17.6,30.11,East,93,5.8,5.8,76,0.00,OVC,,0.00,0.0,WeatherDisplay:10.37,2013-03-05 05:25:00,
2013-03-04 23:30:00,24.1,17.6,30.11,ENE,62,3.5,3.5,76,0.00,OVC,,0.00,0.0,WeatherDisplay:10.37,2013-03-05 05:30:00,
2013-03-04 23:35:00,24.3,17.8,30.11,ENE,77,3.5,3.5,76,0.00,OVC,,0.00,0.0,WeatherDisplay:10.37,2013-03-05 05:35:00,
2013-03-04 23:40:00,24.3,17.8,30.11,East,83,3.5,3.5,76,0.00,OVC,,0.00,0.0,WeatherDisplay:10.37,2013-03-05 05:40:00,
2013-03-04 23:45:00,24.3,17.5,30.11,East,83,0.0,0.0,75,0.00,OVC,,0.00,0.0,WeatherDisplay:10.37,2013-03-05 05:45:00,
2013-03-04 23:50:00,24.3,17.5,30.11,East,83,3.5,3.5,75,0.00,OVC,,0.00,0.0,WeatherDisplay:10.37,2013-03-05 05:50:00,
2013-03-04 23:55:00,24.3,17.5,30.11,East,89,3.6,3.6,75,0.00,OVC,,0.00,0.0,WeatherDisplay:10.37,2013-03-05 05:55:00,